Terminal Aerodrome Forecast
Issued by NWS

Home | Current Version | Previous Version | Text Only | Print | Product List | Glossary On
Versions: 1 2 3 4 5 6 7 8 9 10 11 12 13 14 15 16 17 18 19 20 21 22 23 24 25 26 27 28 29 30
198
FTUS43 KPAH 181130
TAFOWB
TAF
KOWB 181130Z 1812/1912 19005KT P6SM VCSH OVC100
     FM181700 21008KT 6SM BR VCSH OVC030
     FM190000 21004KT P6SM OVC025
     FM190800 20003KT 3SM BR SCT005 BKN020=

USA.gov is the U.S. government's official web portal to all federal, state and local government web resources and services.